SBGR/GRU METAR and TAF weather

Enter ICAO airport designator
Station Type Date Time Source
SBGR METAR 2020/11/25 22:00 UTC NOAA

SBGR 252200Z 13006KT CAVOK 25/14 Q1018


Station Type Date Time Source
SBGR Decoded METAR 2020/11/25 22:00 UTC NOAA

Guarulhos Civ / Mil , Brazil (SBGR) 23-26S 046-28W
Nov 25, 2020 - 05:00 PM EST / 2020.11.25 2200 UTC
Wind: from the SE (130 degrees) at 7 MPH (6 KT):0
Visibility: greater than 7 mile(s):0
Temperature: 77 F (25 C)
Dew Point: 57 F (14 C)
Relative Humidity: 50%
Pressure (altimeter): 30.06 in. Hg (1018 hPa)
ob: SBGR 252200Z 13006KT CAVOK 25/14 Q1018
cycle: 22

Station Type Date Time Source
SBGR TAF 2020/11/25 18:27 UTC NOAA

TAF SBGR 251500Z 2518/2624 16010KT 9999 SCT040TN19/2609Z TX31/2618Z PROB30 2521/2523 BKN017
BECMG 2523/2601 08007KT CAVOK PROB30 2607/2610 5000 BR SCT007
BECMG 2612/2614 34006KT SCT040
BECMG 2615/2617 28004KT BKN040
BECMG 2618/2620 00000KT
BECMG 2620/2622 12008KT FEW045
RMK PGE

Example: see airport list